createdAt,value
2023-03-05T00:00:02.087Z,7.10
2023-03-05T00:01:02.079Z,7.07
2023-03-05T00:02:02.040Z,7.03
2023-03-05T00:03:02.045Z,7.00
2023-03-05T00:04:02.028Z,7.01
2023-03-05T00:05:02.009Z,7.01
2023-03-05T00:06:02.081Z,7.07
2023-03-05T00:07:02.033Z,6.99
2023-03-05T00:08:02.010Z,7.03
2023-03-05T00:09:01.998Z,7.07
2023-03-05T00:10:01.981Z,7.01
2023-03-05T00:11:01.987Z,6.93
2023-03-05T00:12:01.938Z,6.92
2023-03-05T00:13:01.958Z,6.89
2023-03-05T00:14:01.926Z,6.79
2023-03-05T00:15:01.911Z,6.82
2023-03-05T00:16:01.934Z,6.73
2023-03-05T00:17:01.937Z,6.83
2023-03-05T00:18:01.897Z,6.82
2023-03-05T00:19:01.878Z,6.86
2023-03-05T00:20:02.476Z,6.85
2023-03-05T00:21:01.874Z,6.88
2023-03-05T00:22:01.884Z,6.92
2023-03-05T00:23:01.832Z,6.86
2023-03-05T00:24:01.826Z,6.91
2023-03-05T00:25:01.813Z,6.86
2023-03-05T00:26:01.839Z,6.82
2023-03-05T00:27:01.815Z,6.79
2023-03-05T00:28:01.830Z,6.82
2023-03-05T00:29:01.850Z,6.79
2023-03-05T00:30:01.778Z,6.68
2023-03-05T00:31:01.856Z,6.79
2023-03-05T00:32:01.813Z,6.85
2023-03-05T00:33:01.777Z,6.86
2023-03-05T00:34:01.797Z,6.89
2023-03-05T00:35:01.762Z,6.96
2023-03-05T00:36:01.776Z,6.86
2023-03-05T00:37:01.748Z,6.91
2023-03-05T00:38:01.723Z,6.78
2023-03-05T00:39:01.678Z,6.78
2023-03-05T00:40:01.767Z,6.79
2023-03-05T00:41:01.672Z,6.70
2023-03-05T00:42:01.665Z,6.70
2023-03-05T00:43:01.696Z,6.70
2023-03-05T00:44:01.687Z,6.71
2023-03-05T00:45:01.627Z,6.74
2023-03-05T00:46:01.667Z,6.75
2023-03-05T00:47:01.629Z,6.75
2023-03-05T00:48:01.608Z,6.70
2023-03-05T00:49:01.639Z,6.73
2023-03-05T00:50:01.594Z,6.78
2023-03-05T00:51:01.597Z,6.74
2023-03-05T00:52:01.574Z,6.70
2023-03-05T00:53:01.558Z,6.65
2023-03-05T00:54:01.548Z,6.71
2023-03-05T00:55:01.542Z,6.75
2023-03-05T00:56:01.559Z,6.63
2023-03-05T00:57:01.530Z,6.68
2023-03-05T00:58:01.513Z,6.70
2023-03-05T00:59:01.486Z,6.68
2023-03-05T01:00:01.508Z,6.68
2023-03-05T01:01:01.507Z,6.65
2023-03-05T01:02:01.532Z,6.61
2023-03-05T01:03:01.449Z,6.63
2023-03-05T01:04:01.496Z,6.73
2023-03-05T01:05:01.529Z,6.83
2023-03-05T01:06:01.452Z,6.79
2023-03-05T01:07:01.460Z,6.75
2023-03-05T01:08:01.399Z,6.70
2023-03-05T01:09:01.392Z,6.71
2023-03-05T01:10:01.403Z,6.75
2023-03-05T01:11:01.368Z,6.79
2023-03-05T01:12:01.399Z,6.78
2023-03-05T01:13:01.388Z,6.73
2023-03-05T01:14:01.340Z,6.70
2023-03-05T01:15:01.377Z,6.71
2023-03-05T01:16:01.363Z,6.68
2023-03-05T01:17:01.303Z,6.74
2023-03-05T01:18:01.302Z,6.71
2023-03-05T01:19:01.276Z,6.71
2023-03-05T01:20:01.303Z,6.71
2023-03-05T01:21:01.304Z,6.71
2023-03-05T01:22:01.317Z,6.79
2023-03-05T01:23:01.265Z,6.68
2023-03-05T01:24:01.252Z,6.71
2023-03-05T01:25:01.272Z,6.81
2023-03-05T01:26:01.204Z,6.73
2023-03-05T01:27:01.217Z,6.85
2023-03-05T01:28:01.209Z,6.85
2023-03-05T01:29:01.228Z,6.79
2023-03-05T01:30:01.201Z,6.83
2023-03-05T01:31:01.169Z,6.88
2023-03-05T01:32:01.191Z,6.92
2023-03-05T01:33:01.164Z,6.85
2023-03-05T01:34:01.142Z,6.71
2023-03-05T01:35:01.130Z,6.82
2023-03-05T01:36:01.124Z,6.92
2023-03-05T01:37:01.156Z,6.81
2023-03-05T01:38:01.137Z,6.82
2023-03-05T01:39:01.090Z,6.82
2023-03-05T01:40:01.128Z,6.82
2023-03-05T01:41:01.110Z,6.83
2023-03-05T01:42:01.066Z,6.79
2023-03-05T01:43:01.076Z,6.81
2023-03-05T01:44:01.101Z,6.71
2023-03-05T01:45:01.086Z,6.63
2023-03-05T01:46:01.056Z,6.67
2023-03-05T01:47:01.065Z,6.65
2023-03-05T01:48:01.034Z,6.70
2023-03-05T01:49:00.996Z,6.63
2023-03-05T01:50:01.013Z,6.73
2023-03-05T01:51:00.996Z,6.70
2023-03-05T01:52:00.964Z,6.61
2023-03-05T01:53:00.991Z,6.61
2023-03-05T01:54:00.972Z,6.61
2023-03-05T01:55:00.940Z,6.65
2023-03-05T01:56:00.935Z,6.67
2023-03-05T01:57:00.938Z,6.64
2023-03-05T01:58:00.922Z,6.64
2023-03-05T01:59:00.896Z,6.64
2023-03-05T02:00:00.893Z,6.64
2023-03-05T02:01:00.976Z,6.65
2023-03-05T02:02:00.939Z,6.55
2023-03-05T02:03:00.869Z,6.56
2023-03-05T02:04:00.924Z,6.60
2023-03-05T02:05:00.867Z,6.55
2023-03-05T02:06:00.830Z,6.49
2023-03-05T02:07:00.832Z,6.56
2023-03-05T02:08:00.805Z,6.53
2023-03-05T02:09:00.846Z,6.56
2023-03-05T02:10:00.844Z,6.55
2023-03-05T02:11:00.782Z,6.63
2023-03-05T02:12:00.771Z,6.55
2023-03-05T02:13:00.762Z,6.50
2023-03-05T02:14:00.783Z,6.50
2023-03-05T02:15:00.752Z,6.60
2023-03-05T02:16:00.740Z,6.50
2023-03-05T02:17:00.779Z,6.56
2023-03-05T02:18:00.716Z,6.50
2023-03-05T02:19:00.761Z,6.67
2023-03-05T02:20:00.720Z,6.64
2023-03-05T02:21:00.746Z,6.71
2023-03-05T02:22:00.683Z,6.63
2023-03-05T02:23:00.666Z,6.67
2023-03-05T02:24:00.701Z,6.68
2023-03-05T02:25:00.691Z,6.61
2023-03-05T02:26:00.646Z,6.64
2023-03-05T02:27:00.629Z,6.78
2023-03-05T02:28:00.652Z,6.68
2023-03-05T02:29:00.616Z,6.65
2023-03-05T02:30:00.699Z,6.63
2023-03-05T02:31:00.616Z,6.63
2023-03-05T02:32:00.645Z,6.67
2023-03-05T02:33:00.629Z,6.65
2023-03-05T02:34:00.576Z,6.65
2023-03-05T02:35:00.572Z,6.63
2023-03-05T02:36:00.637Z,6.71
2023-03-05T02:37:00.551Z,6.74
2023-03-05T02:38:00.555Z,6.68
2023-03-05T02:39:00.565Z,6.61
2023-03-05T02:40:00.548Z,6.75
2023-03-05T02:41:00.521Z,6.64
2023-03-05T02:42:00.500Z,6.60
2023-03-05T02:43:00.506Z,6.38
2023-03-05T02:44:00.545Z,6.46
2023-03-05T02:45:00.452Z,6.42
2023-03-05T02:46:00.480Z,6.40
2023-03-05T02:47:00.501Z,6.38
2023-03-05T02:48:00.442Z,6.38
2023-03-05T02:49:00.455Z,6.37
2023-03-05T02:50:00.410Z,6.37
2023-03-05T02:51:00.401Z,6.50
2023-03-05T02:52:00.413Z,6.38
2023-03-05T02:53:00.390Z,6.45
2023-03-05T02:54:00.414Z,6.35
2023-03-05T02:55:00.379Z,6.40
2023-03-05T02:56:00.408Z,6.32
2023-03-05T02:57:00.373Z,6.37
2023-03-05T02:58:00.339Z,6.35
2023-03-05T02:59:00.360Z,6.38
2023-03-05T03:00:00.329Z,6.43
2023-03-05T03:01:00.361Z,6.40
2023-03-05T03:02:00.329Z,6.40
2023-03-05T03:03:00.326Z,6.43
2023-03-05T03:04:00.271Z,6.50
2023-03-05T03:05:00.271Z,6.47
2023-03-05T03:06:00.282Z,6.46
2023-03-05T03:07:00.284Z,6.47
2023-03-05T03:08:00.241Z,6.55
2023-03-05T03:09:00.232Z,6.56
2023-03-05T03:10:00.217Z,6.50
2023-03-05T03:11:00.245Z,6.37
2023-03-05T03:12:00.223Z,6.46
2023-03-05T03:13:00.214Z,6.40
2023-03-05T03:14:00.184Z,6.42
2023-03-05T03:15:00.181Z,6.40
2023-03-05T03:16:00.190Z,6.42
2023-03-05T03:17:00.223Z,6.40
2023-03-05T03:18:00.150Z,6.40
2023-03-05T03:19:00.138Z,6.43
2023-03-05T03:20:00.167Z,6.32
2023-03-05T03:21:00.122Z,6.38
2023-03-05T03:22:00.109Z,6.38
2023-03-05T03:23:00.113Z,6.38
2023-03-05T03:24:00.152Z,6.25
2023-03-05T03:25:00.111Z,6.25
2023-03-05T03:26:00.125Z,6.27
2023-03-05T03:27:00.103Z,6.42
2023-03-05T03:28:00.054Z,6.31
2023-03-05T03:29:00.042Z,6.40
2023-03-05T03:30:00.098Z,6.49
2023-03-05T03:31:00.060Z,6.38
2023-03-05T03:32:00.076Z,6.15
2023-03-05T03:33:00.016Z,6.18
2023-03-05T03:34:00.038Z,6.05
2023-03-05T03:35:00.009Z,6.15
2023-03-05T03:36:00.012Z,6.19
2023-03-05T03:36:59.995Z,6.18
2023-03-05T03:37:59.961Z,6.28
2023-03-05T03:38:59.971Z,6.37
2023-03-05T03:39:59.937Z,6.42
2023-03-05T03:40:59.992Z,6.38
2023-03-05T03:41:59.936Z,6.34
2023-03-05T03:42:59.928Z,6.37
2023-03-05T03:43:59.931Z,6.40
2023-03-05T03:44:59.898Z,6.35
2023-03-05T03:45:59.949Z,6.37
2023-03-05T03:46:59.910Z,6.42
2023-03-05T03:47:59.860Z,6.35
2023-03-05T03:48:59.869Z,6.31
2023-03-05T03:49:59.848Z,6.34
2023-03-05T03:50:59.867Z,6.38
2023-03-05T03:51:59.824Z,6.38
2023-03-05T03:52:59.810Z,6.43
2023-03-05T03:53:59.819Z,6.46
2023-03-05T03:54:59.804Z,6.38
2023-03-05T03:55:59.816Z,6.37
2023-03-05T03:56:59.814Z,6.42
2023-03-05T03:57:59.796Z,6.38
2023-03-05T03:58:59.806Z,6.49
2023-03-05T03:59:59.749Z,6.43
2023-03-05T04:00:59.740Z,6.37
2023-03-05T04:01:59.742Z,6.37
2023-03-05T04:02:59.742Z,6.52
2023-03-05T04:03:59.746Z,6.47
2023-03-05T04:04:59.710Z,6.24
2023-03-05T04:05:59.691Z,6.25
2023-03-05T04:06:59.676Z,6.28
2023-03-05T04:07:59.664Z,6.27
2023-03-05T04:08:59.663Z,6.15
2023-03-05T04:09:59.647Z,6.16
2023-03-05T04:10:59.661Z,6.19
2023-03-05T04:11:59.654Z,6.12
2023-03-05T04:12:59.630Z,6.09
2023-03-05T04:13:59.600Z,6.13
2023-03-05T04:14:59.594Z,6.16
2023-03-05T04:15:59.622Z,6.15
2023-03-05T04:16:59.592Z,6.15
2023-03-05T04:17:59.571Z,6.21
2023-03-05T04:18:59.577Z,6.32
2023-03-05T04:19:59.591Z,6.12
2023-03-05T04:20:59.542Z,6.18
2023-03-05T04:21:59.551Z,6.13
2023-03-05T04:22:59.535Z,6.19
2023-03-05T04:23:59.540Z,6.06
2023-03-05T04:24:59.533Z,6.11
2023-03-05T04:25:59.484Z,6.13
2023-03-05T04:26:59.501Z,6.15
2023-03-05T04:27:59.492Z,6.16
2023-03-05T04:28:59.462Z,6.25
2023-03-05T04:29:59.440Z,6.30
2023-03-05T04:30:59.540Z,6.28
2023-03-05T04:31:59.483Z,6.37
2023-03-05T04:32:59.415Z,6.38
2023-03-05T04:33:59.423Z,6.32
2023-03-05T04:34:59.471Z,6.38
2023-03-05T04:35:59.473Z,6.40
2023-03-05T04:36:59.435Z,6.40
2023-03-05T04:37:59.392Z,6.46
2023-03-05T04:38:59.353Z,6.38
2023-03-05T04:39:59.342Z,6.40
2023-03-05T04:40:59.347Z,6.50
2023-03-05T04:41:59.341Z,6.43
2023-03-05T04:42:59.393Z,6.50
2023-03-05T04:43:59.327Z,6.47
2023-03-05T04:44:59.312Z,6.52
2023-03-05T04:45:59.310Z,6.38
2023-03-05T04:46:59.270Z,6.49
2023-03-05T04:47:59.317Z,6.49
2023-03-05T04:48:59.288Z,6.40
2023-03-05T04:49:59.250Z,6.46
2023-03-05T04:50:59.236Z,6.42
2023-03-05T04:51:59.250Z,6.42
2023-03-05T04:52:59.222Z,6.34
2023-03-05T04:53:59.251Z,6.27
2023-03-05T04:54:59.207Z,6.27
2023-03-05T04:55:59.204Z,6.38
2023-03-05T04:56:59.181Z,6.27
2023-03-05T04:57:59.243Z,6.24
2023-03-05T04:58:59.181Z,6.21
2023-03-05T04:59:59.160Z,6.24
2023-03-05T05:00:59.142Z,6.30
2023-03-05T05:01:59.204Z,6.25
2023-03-05T05:02:59.246Z,6.28
2023-03-05T05:03:59.132Z,6.25
2023-03-05T05:04:59.117Z,6.25
2023-03-05T05:05:59.082Z,6.27
2023-03-05T05:06:59.083Z,6.19
2023-03-05T05:07:59.065Z,6.38
2023-03-05T05:08:59.057Z,6.35
2023-03-05T05:09:59.043Z,6.38
2023-03-05T05:10:59.062Z,6.40
2023-03-05T05:11:59.041Z,6.38
2023-03-05T05:12:59.023Z,6.13
2023-03-05T05:13:59.007Z,6.09
2023-03-05T05:14:59.055Z,6.06
2023-03-05T05:15:59.035Z,6.13
2023-03-05T05:16:58.984Z,6.13
2023-03-05T05:17:58.974Z,6.13
2023-03-05T05:18:58.982Z,6.24
2023-03-05T05:19:59.001Z,6.12
2023-03-05T05:20:58.975Z,6.15
2023-03-05T05:21:58.962Z,6.15
2023-03-05T05:22:58.923Z,6.12
2023-03-05T05:23:58.940Z,6.06
2023-03-05T05:24:58.933Z,6.13
2023-03-05T05:25:58.895Z,6.09
2023-03-05T05:26:58.879Z,6.03
2023-03-05T05:27:58.902Z,6.02
2023-03-05T05:28:58.861Z,6.11
2023-03-05T05:29:58.870Z,6.13
2023-03-05T05:30:58.848Z,6.13
2023-03-05T05:31:58.852Z,6.11
2023-03-05T05:32:58.825Z,6.09
2023-03-05T05:33:58.838Z,6.09
2023-03-05T05:34:58.811Z,6.08
2023-03-05T05:35:58.853Z,6.12
2023-03-05T05:36:58.792Z,6.15
2023-03-05T05:37:58.813Z,6.15
2023-03-05T05:38:58.774Z,6.09
2023-03-05T05:39:58.790Z,6.21
2023-03-05T05:40:58.764Z,6.18
2023-03-05T05:41:58.759Z,6.12
2023-03-05T05:42:58.741Z,6.15
2023-03-05T05:43:58.744Z,6.15
2023-03-05T05:44:58.733Z,6.13
2023-03-05T05:45:58.856Z,6.19
2023-03-05T05:46:58.694Z,6.12
2023-03-05T05:47:58.688Z,6.15
2023-03-05T05:48:58.670Z,6.16
2023-03-05T05:49:58.716Z,6.28
2023-03-05T05:50:58.717Z,6.24
2023-03-05T05:51:58.660Z,6.24
2023-03-05T05:52:58.641Z,6.31
2023-03-05T05:53:58.679Z,6.31
2023-03-05T05:54:58.666Z,6.28
2023-03-05T05:55:58.642Z,6.25
2023-03-05T05:56:58.656Z,6.12
2023-03-05T05:57:58.628Z,6.02
2023-03-05T05:58:58.598Z,5.88
2023-03-05T05:59:58.594Z,5.84
2023-03-05T06:00:58.583Z,5.72
2023-03-05T06:01:58.618Z,5.79
2023-03-05T06:02:58.571Z,5.80
2023-03-05T06:03:58.549Z,5.90
2023-03-05T06:04:58.538Z,5.95
2023-03-05T06:05:58.509Z,6.00
2023-03-05T06:06:58.496Z,6.09
2023-03-05T06:07:58.520Z,6.15
2023-03-05T06:08:58.485Z,6.11
2023-03-05T06:09:58.470Z,6.16
2023-03-05T06:10:58.472Z,6.08
2023-03-05T06:11:58.458Z,6.12
2023-03-05T06:12:58.447Z,6.12
2023-03-05T06:13:58.465Z,6.16
2023-03-05T06:14:58.468Z,6.11
2023-03-05T06:15:58.448Z,6.19
2023-03-05T06:16:58.425Z,6.15
2023-03-05T06:17:58.421Z,6.08
2023-03-05T06:18:58.423Z,6.08
2023-03-05T06:19:58.404Z,6.18
2023-03-05T06:20:58.388Z,6.16
2023-03-05T06:21:58.412Z,6.09
2023-03-05T06:22:58.375Z,6.11
2023-03-05T06:23:58.342Z,6.08
2023-03-05T06:24:58.364Z,6.06
2023-03-05T06:25:58.341Z,6.09
2023-03-05T06:26:58.328Z,5.98
2023-03-05T06:27:58.324Z,6.05
2023-03-05T06:28:58.290Z,6.09
2023-03-05T06:29:58.312Z,6.05
2023-03-05T06:30:58.316Z,6.11
2023-03-05T06:31:58.320Z,6.06
2023-03-05T06:32:58.275Z,6.02
2023-03-05T06:33:58.257Z,6.09
2023-03-05T06:34:58.222Z,6.02
2023-03-05T06:35:58.263Z,5.97
2023-03-05T06:36:58.240Z,5.88
2023-03-05T06:37:58.241Z,5.85
2023-03-05T06:38:58.183Z,5.88
2023-03-05T06:39:58.185Z,6.02
2023-03-05T06:40:58.190Z,6.05
2023-03-05T06:41:58.178Z,6.06
2023-03-05T06:42:58.176Z,6.16
2023-03-05T06:43:58.140Z,6.15
2023-03-05T06:44:58.159Z,6.11
2023-03-05T06:45:58.180Z,6.11
2023-03-05T06:46:58.116Z,6.13
2023-03-05T06:47:58.098Z,6.19
2023-03-05T06:48:58.084Z,6.16
2023-03-05T06:49:58.070Z,6.19
2023-03-05T06:50:58.069Z,6.16
2023-03-05T06:51:58.062Z,6.27
2023-03-05T06:52:58.083Z,6.25
2023-03-05T06:53:58.059Z,6.27
2023-03-05T06:54:58.061Z,6.25
2023-03-05T06:55:58.015Z,6.21
2023-03-05T06:56:58.025Z,6.24
2023-03-05T06:57:58.009Z,6.27
2023-03-05T06:58:58.010Z,6.24
2023-03-05T06:59:57.988Z,6.31
2023-03-05T07:00:58.030Z,6.28
2023-03-05T07:01:58.018Z,6.19
2023-03-05T07:02:57.951Z,6.21
2023-03-05T07:03:57.968Z,6.16
2023-03-05T07:04:57.975Z,6.16
2023-03-05T07:05:57.941Z,6.13
2023-03-05T07:06:57.912Z,6.06
2023-03-05T07:07:57.937Z,6.12
2023-03-05T07:08:57.933Z,6.11
2023-03-05T07:09:57.881Z,6.08
2023-03-05T07:10:57.885Z,6.15
2023-03-05T07:11:57.883Z,6.12
2023-03-05T07:12:57.863Z,6.12
2023-03-05T07:13:57.877Z,6.15
2023-03-05T07:14:57.834Z,6.15
2023-03-05T07:15:57.925Z,6.19
2023-03-05T07:16:57.812Z,6.21
2023-03-05T07:17:57.796Z,6.19
2023-03-05T07:18:57.786Z,6.28
2023-03-05T07:19:57.783Z,6.19
2023-03-05T07:20:57.801Z,6.28
2023-03-05T07:21:57.799Z,6.13
2023-03-05T07:22:57.787Z,6.27
2023-03-05T07:23:57.766Z,6.18
2023-03-05T07:24:57.733Z,6.15
2023-03-05T07:25:57.729Z,6.30
2023-03-05T07:26:57.708Z,6.16
2023-03-05T07:27:57.710Z,6.15
2023-03-05T07:28:57.718Z,6.16
2023-03-05T07:29:57.696Z,6.16
2023-03-05T07:30:57.768Z,6.12
2023-03-05T07:31:57.681Z,6.13
2023-03-05T07:32:57.650Z,6.11
2023-03-05T07:33:57.660Z,6.12
2023-03-05T07:34:57.654Z,6.18
2023-03-05T07:35:57.644Z,6.16
2023-03-05T07:36:57.617Z,6.21
2023-03-05T07:37:57.605Z,6.35
2023-03-05T07:38:57.617Z,6.28
2023-03-05T07:39:57.607Z,6.27
2023-03-05T07:40:57.566Z,6.24
2023-03-05T07:41:57.575Z,6.12
2023-03-05T07:42:57.583Z,6.15
2023-03-05T07:43:57.567Z,6.13
2023-03-05T07:44:57.532Z,6.12
2023-03-05T07:45:57.529Z,6.16
2023-03-05T07:46:57.513Z,6.12
2023-03-05T07:47:57.496Z,6.15
2023-03-05T07:48:57.512Z,6.12
2023-03-05T07:49:57.478Z,6.28
2023-03-05T07:50:57.540Z,6.18
2023-03-05T07:51:57.458Z,6.24
2023-03-05T07:52:57.456Z,6.27
2023-03-05T07:53:57.447Z,6.25
2023-03-05T07:54:57.428Z,6.19
2023-03-05T07:55:57.420Z,6.19
2023-03-05T07:56:57.428Z,6.18
2023-03-05T07:57:57.398Z,6.16
2023-03-05T07:58:57.411Z,6.02
2023-03-05T07:59:57.440Z,6.06
2023-03-05T08:00:57.382Z,6.06
2023-03-05T08:01:57.363Z,6.13
2023-03-05T08:02:57.353Z,6.19
2023-03-05T08:03:57.403Z,6.24
2023-03-05T08:04:57.327Z,6.21
2023-03-05T08:05:57.360Z,6.25
2023-03-05T08:06:57.316Z,6.28
2023-03-05T08:07:57.308Z,6.35
2023-03-05T08:08:57.292Z,6.42
2023-03-05T08:09:57.296Z,6.38
2023-03-05T08:10:57.315Z,6.38
2023-03-05T08:11:57.258Z,6.46
2023-03-05T08:12:57.251Z,6.42
2023-03-05T08:13:57.269Z,6.42
2023-03-05T08:14:57.228Z,6.42
2023-03-05T08:15:57.287Z,6.43
2023-03-05T08:16:57.261Z,6.37
2023-03-05T08:17:57.264Z,6.45
2023-03-05T08:18:57.222Z,6.38
2023-03-05T08:19:57.181Z,6.42
2023-03-05T08:20:57.171Z,6.37
2023-03-05T08:21:57.183Z,6.37
2023-03-05T08:22:57.166Z,6.31
2023-03-05T08:23:57.147Z,6.38
2023-03-05T08:24:57.143Z,6.38
2023-03-05T08:25:57.144Z,6.42
2023-03-05T08:26:57.120Z,6.37
2023-03-05T08:27:57.113Z,6.40
2023-03-05T08:28:57.108Z,6.50
2023-03-05T08:29:57.129Z,6.37
2023-03-05T08:30:57.104Z,6.46
2023-03-05T08:31:57.074Z,6.37
2023-03-05T08:32:57.087Z,6.43
2023-03-05T08:33:57.046Z,6.40
2023-03-05T08:34:57.040Z,6.46
2023-03-05T08:35:57.046Z,6.42
2023-03-05T08:36:57.015Z,6.57
2023-03-05T08:37:57.004Z,6.56
2023-03-05T08:38:57.000Z,6.55
2023-03-05T08:39:56.999Z,6.56
2023-03-05T08:40:56.980Z,6.56
2023-03-05T08:41:56.974Z,6.56
2023-03-05T08:42:56.957Z,6.56
2023-03-05T08:43:56.953Z,6.55
2023-03-05T08:44:56.951Z,6.67
2023-03-05T08:45:56.927Z,6.52
2023-03-05T08:46:56.955Z,6.52
2023-03-05T08:47:56.910Z,6.57
2023-03-05T08:48:56.951Z,6.55
2023-03-05T08:49:56.936Z,6.52
2023-03-05T08:50:56.953Z,6.49
2023-03-05T08:51:56.880Z,6.61
2023-03-05T08:52:56.880Z,6.64
2023-03-05T08:53:56.884Z,6.64
2023-03-05T08:54:56.863Z,6.61
2023-03-05T08:55:56.862Z,6.68
2023-03-05T08:56:56.828Z,6.70
2023-03-05T08:57:56.832Z,6.68
2023-03-05T08:58:56.833Z,6.65
2023-03-05T08:59:56.839Z,6.63
2023-03-05T09:00:56.814Z,6.67
2023-03-05T09:01:56.907Z,6.74
2023-03-05T09:02:56.842Z,6.67
2023-03-05T09:03:56.764Z,6.75
2023-03-05T09:04:56.777Z,6.68
2023-03-05T09:05:56.748Z,6.70
2023-03-05T09:06:56.736Z,6.75
2023-03-05T09:07:56.744Z,6.68
2023-03-05T09:08:56.734Z,6.74
2023-03-05T09:09:56.726Z,6.63
2023-03-05T09:10:56.703Z,6.64
2023-03-05T09:11:56.686Z,6.68
2023-03-05T09:12:56.670Z,6.64
2023-03-05T09:13:56.669Z,6.64
2023-03-05T09:14:56.681Z,6.64
2023-03-05T09:15:56.713Z,6.61
2023-03-05T09:16:56.659Z,6.56
2023-03-05T09:17:56.635Z,6.56
2023-03-05T09:18:56.636Z,6.57
2023-03-05T09:19:56.611Z,6.56
2023-03-05T09:20:56.633Z,6.60
2023-03-05T09:21:57.151Z,6.50
2023-03-05T09:22:56.597Z,6.55
2023-03-05T09:23:56.570Z,6.56
2023-03-05T09:24:56.613Z,6.61
2023-03-05T09:25:56.565Z,6.61
2023-03-05T09:26:56.548Z,6.64
2023-03-05T09:27:56.554Z,6.71
2023-03-05T09:28:56.564Z,6.64
2023-03-05T09:29:56.532Z,6.71
2023-03-05T09:30:56.588Z,6.65
2023-03-05T09:31:56.590Z,6.73
2023-03-05T09:32:56.500Z,6.67
2023-03-05T09:33:56.515Z,6.75
2023-03-05T09:34:56.507Z,6.68
2023-03-05T09:35:56.512Z,6.67
2023-03-05T09:36:56.489Z,6.81
2023-03-05T09:37:56.451Z,6.79
2023-03-05T09:38:56.437Z,6.71
2023-03-05T09:39:56.425Z,6.71
2023-03-05T09:40:56.447Z,6.70
2023-03-05T09:41:56.422Z,6.68
2023-03-05T09:42:56.390Z,6.73
2023-03-05T09:43:56.396Z,6.79
2023-03-05T09:44:56.422Z,6.68
2023-03-05T09:45:56.432Z,6.73
2023-03-05T09:46:56.407Z,6.71
2023-03-05T09:47:56.341Z,6.71
2023-03-05T09:48:56.377Z,6.67
2023-03-05T09:49:56.362Z,6.81
2023-03-05T09:50:56.312Z,6.71
2023-03-05T09:51:56.345Z,6.73
2023-03-05T09:52:56.286Z,6.75
2023-03-05T09:53:56.363Z,6.70
2023-03-05T09:54:56.338Z,6.67
2023-03-05T09:55:56.268Z,6.74
2023-03-05T09:56:56.253Z,6.75
2023-03-05T09:57:56.292Z,6.70
2023-03-05T09:58:56.364Z,6.74
2023-03-05T09:59:56.226Z,6.73
2023-03-05T10:00:56.229Z,6.82
2023-03-05T10:01:56.229Z,6.68
2023-03-05T10:02:56.236Z,6.67
2023-03-05T10:03:56.205Z,6.73
2023-03-05T10:04:56.186Z,6.71
2023-03-05T10:05:56.179Z,6.81
2023-03-05T10:06:56.177Z,6.81
2023-03-05T10:07:56.177Z,6.82
2023-03-05T10:08:56.174Z,6.83
2023-03-05T10:09:56.136Z,6.71
2023-03-05T10:10:56.129Z,6.85
2023-03-05T10:11:56.113Z,6.86
2023-03-05T10:12:56.131Z,6.82
2023-03-05T10:13:56.106Z,6.81
2023-03-05T10:14:56.096Z,6.73
2023-03-05T10:15:56.138Z,6.81
2023-03-05T10:16:56.164Z,6.71
2023-03-05T10:17:56.061Z,6.71
2023-03-05T10:18:56.076Z,6.73
2023-03-05T10:19:56.092Z,6.75
2023-03-05T10:20:56.060Z,6.83
2023-03-05T10:21:56.030Z,6.65
2023-03-05T10:22:56.056Z,6.81
2023-03-05T10:23:56.021Z,6.86
2023-03-05T10:24:56.036Z,6.83
2023-03-05T10:25:56.013Z,6.92
2023-03-05T10:26:56.038Z,6.89
2023-03-05T10:27:55.965Z,6.91
2023-03-05T10:28:55.980Z,6.91
2023-03-05T10:29:55.953Z,6.93
2023-03-05T10:30:55.978Z,6.97
2023-03-05T10:31:55.942Z,6.99
2023-03-05T10:32:55.939Z,7.01
2023-03-05T10:33:55.909Z,7.07
2023-03-05T10:34:55.898Z,7.07
2023-03-05T10:35:55.923Z,7.10
2023-03-05T10:36:58.154Z,7.19
2023-03-05T10:37:55.875Z,7.19
2023-03-05T10:38:55.863Z,7.33
2023-03-05T10:39:55.919Z,7.43
2023-03-05T10:40:55.843Z,7.42
2023-03-05T10:41:55.859Z,7.43
2023-03-05T10:42:55.830Z,7.40
2023-03-05T10:43:55.829Z,7.37
2023-03-05T10:44:55.850Z,7.28
2023-03-05T10:45:55.846Z,7.29
2023-03-05T10:46:56.067Z,7.39
2023-03-05T10:47:55.774Z,7.36
2023-03-05T10:48:55.774Z,7.19
2023-03-05T10:49:55.752Z,7.22
2023-03-05T10:50:55.769Z,7.21
2023-03-05T10:51:55.764Z,7.06
2023-03-05T10:52:55.774Z,7.08
2023-03-05T10:53:55.757Z,7.22
2023-03-05T10:54:55.741Z,7.10
2023-03-05T10:55:55.701Z,7.10
2023-03-05T10:56:55.776Z,7.08
2023-03-05T10:57:55.734Z,7.01
2023-03-05T10:58:55.714Z,6.99
2023-03-05T10:59:55.671Z,6.97
2023-03-05T11:00:55.713Z,6.99
2023-03-05T11:01:55.687Z,7.06
2023-03-05T11:02:55.661Z,6.97
2023-03-05T11:03:55.647Z,7.08
2023-03-05T11:04:55.680Z,7.04
2023-03-05T11:05:56.669Z,7.04
2023-03-05T11:08:29.111Z,7.00
2023-03-05T11:09:29.104Z,6.97
2023-03-05T11:11:23.212Z,7.06
2023-03-05T11:12:23.237Z,7.00
2023-03-05T11:14:18.287Z,7.04
2023-03-05T11:15:18.263Z,7.06
2023-03-05T11:17:13.343Z,7.03
2023-03-05T11:18:13.321Z,7.04
2023-03-05T11:20:08.423Z,7.07
2023-03-05T11:21:08.416Z,7.04
2023-03-05T11:23:03.547Z,7.11
2023-03-05T11:24:03.527Z,7.11
2023-03-05T11:25:58.751Z,7.11
2023-03-05T11:26:58.736Z,6.99
2023-03-05T11:28:53.844Z,7.08
2023-03-05T11:29:53.858Z,7.10
2023-03-05T11:31:48.599Z,7.08
2023-03-05T11:32:48.586Z,7.08
2023-03-05T11:34:43.667Z,7.10
2023-03-05T11:35:43.665Z,7.15
2023-03-05T11:37:38.006Z,7.07
2023-03-05T11:38:37.989Z,7.04
2023-03-05T11:41:24.829Z,7.07
2023-03-05T11:42:24.790Z,7.04
2023-03-05T11:44:19.946Z,7.04
2023-03-05T11:45:19.915Z,6.99
2023-03-05T11:47:15.043Z,7.01
2023-03-05T11:48:15.000Z,7.07
2023-03-05T11:50:10.204Z,7.10
2023-03-05T11:51:10.195Z,7.06
2023-03-05T11:53:05.297Z,7.03
2023-03-05T11:54:05.479Z,6.96
2023-03-05T11:56:00.474Z,7.06
2023-03-05T11:57:00.307Z,7.04
2023-03-05T11:58:55.414Z,6.96
2023-03-05T11:59:55.369Z,6.92
2023-03-05T12:01:50.236Z,6.97
2023-03-05T12:02:50.262Z,6.92
2023-03-05T12:04:44.327Z,6.96
2023-03-05T12:05:44.320Z,6.93
2023-03-05T12:07:39.646Z,6.86
2023-03-05T12:08:39.589Z,6.91
2023-03-05T12:10:34.773Z,6.82
2023-03-05T12:11:34.752Z,6.79
2023-03-05T12:13:28.835Z,6.73
2023-03-05T12:14:28.829Z,6.78
2023-03-05T12:16:22.967Z,6.70
2023-03-05T12:17:22.889Z,6.82
2023-03-05T12:19:18.516Z,6.70
2023-03-05T12:20:17.960Z,6.81
2023-03-05T12:22:12.188Z,6.75
2023-03-05T12:23:12.164Z,6.79
2023-03-05T12:25:06.374Z,6.89
2023-03-05T12:26:06.300Z,7.07
2023-03-05T12:28:00.434Z,7.01
2023-03-05T12:29:00.412Z,7.03
2023-03-05T12:30:54.154Z,7.04
2023-03-05T12:31:54.141Z,7.10
2023-03-05T12:33:50.260Z,7.24
2023-03-05T12:34:50.360Z,7.22
2023-03-05T12:36:45.014Z,7.31
2023-03-05T12:37:45.291Z,7.31
2023-03-05T12:39:41.724Z,7.39
2023-03-05T12:40:41.444Z,7.33
2023-03-05T12:42:36.290Z,7.24
2023-03-05T12:43:36.326Z,7.21
2023-03-05T12:45:31.625Z,7.22
2023-03-05T12:46:31.689Z,7.33
2023-03-05T12:48:27.413Z,7.19
2023-03-05T12:49:27.392Z,7.24
2023-03-05T12:51:22.477Z,7.31
2023-03-05T12:52:22.463Z,7.21
2023-03-05T12:54:19.085Z,7.42
2023-03-05T12:55:17.605Z,7.39
2023-03-05T12:57:13.761Z,7.39
2023-03-05T12:58:13.749Z,7.34
2023-03-05T13:00:08.974Z,7.40
2023-03-05T13:01:08.886Z,7.39
2023-03-05T13:03:04.939Z,7.49
2023-03-05T13:04:05.048Z,7.40
2023-03-05T13:06:00.988Z,7.43
2023-03-05T13:07:01.013Z,7.49
2023-03-05T13:08:56.072Z,7.44
2023-03-05T13:09:56.139Z,7.49
2023-03-05T13:11:51.358Z,7.44
2023-03-05T13:12:51.227Z,7.54
2023-03-05T13:14:46.508Z,7.60
2023-03-05T13:15:46.082Z,7.46
2023-03-05T13:16:46.506Z,7.50
2023-03-05T13:17:46.454Z,7.54
2023-03-05T13:18:45.986Z,7.47
2023-03-05T13:19:46.056Z,7.50
2023-03-05T13:20:45.957Z,7.34
2023-03-05T13:21:45.943Z,7.42
2023-03-05T13:22:45.951Z,7.44
2023-03-05T13:23:46.006Z,7.44
2023-03-05T13:24:45.923Z,7.50
2023-03-05T13:25:45.960Z,7.37
2023-03-05T13:26:45.939Z,7.43
2023-03-05T13:27:45.902Z,7.43
2023-03-05T13:28:45.888Z,7.49
2023-03-05T13:29:45.881Z,7.42
2023-03-05T13:30:45.903Z,7.36
2023-03-05T13:31:45.978Z,7.39
2023-03-05T13:32:45.851Z,7.39
2023-03-05T13:33:45.856Z,7.40
2023-03-05T13:34:47.863Z,7.34
2023-03-05T13:35:45.901Z,7.42
2023-03-05T13:36:45.842Z,7.39
2023-03-05T13:37:45.873Z,7.43
2023-03-05T13:38:45.835Z,7.43
2023-03-05T13:39:45.845Z,7.29
2023-03-05T13:40:45.824Z,7.31
2023-03-05T13:41:45.798Z,7.43
2023-03-05T13:42:45.761Z,7.39
2023-03-05T13:43:45.741Z,7.31
2023-03-05T13:44:45.769Z,7.43
2023-03-05T13:45:45.837Z,7.37
2023-03-05T13:46:45.718Z,7.39
2023-03-05T13:47:45.767Z,7.39
2023-03-05T13:48:45.703Z,7.39
2023-03-05T13:49:45.729Z,7.44
2023-03-05T13:50:45.797Z,7.36
2023-03-05T13:51:45.672Z,7.33
2023-03-05T13:52:45.667Z,7.18
2023-03-05T13:53:45.699Z,7.22
2023-03-05T13:54:45.765Z,7.21
2023-03-05T13:55:45.674Z,7.28
2023-03-05T13:56:45.635Z,7.15
2023-03-05T13:57:45.651Z,7.25
2023-03-05T13:58:45.647Z,7.26
2023-03-05T13:59:45.608Z,7.29